Aviation Digital Data Service (ADDS)

Output produced by TAFs form (2010 UTC 23 March 2017)
found at http://www.aviationweather.gov/adds/tafs/
 
Forecast for: RODN (KADENA (USAFB-NA, JP)
Text: TAF RODN 231700Z 2317/2423 01006KT 9999 SCT022 QNH2995INS TX23/2318Z TN17/2417Z
Forecast period: 1700 UTC 23 March 2017 to 2300 UTC 24 March 2017
Forecast type: FROM: standard forecast or significant change
Winds: from the N (10 degrees) at 7 MPH (6 knots; 3.1 m/s)
Visibility: 6 or more miles (10+ km)
Clouds: scattered clouds at 2200 feet AGL
Weather: no significant weather forecast for this period

Forecast for: ROTM (FUTENMA(US-MCAS), JP)
Text: TAF ROTM 2315/2415 01008KT 9999 SCT030 QNH2997INS
Forecast period: 1500 UTC 23 March 2017 to 0100 UTC 24 March 2017
Forecast type: FROM: standard forecast or significant change
Winds: from the N (10 degrees) at 9 MPH (8 knots; 4.2 m/s)
Visibility: 6 or more miles (10+ km)
Clouds: scattered clouds at 3000 feet AGL
Weather: no significant weather forecast for this period
Text: BECMG 2401/2403 03006KT 9999 BKN030 QNH2996INS T17/2320Z T21/2405Z
Forecast period: 0100 to 1500 UTC 24 March 2017
Forecast type: BECOMING: Conditions expected to become as follows by 0300 UTC 24 March 2017
Winds: from the NNE (30 degrees) at 7 MPH (6 knots; 3.1 m/s)
Visibility: 6 or more miles (10+ km)
Ceiling: 3000 feet AGL
Clouds: broken clouds at 3000 feet AGL
Weather: no significant weather forecast for this period

Forecast for: ROAH (NAHA (CIV/JASDF), JP)
Text: TAF ROAH 231708Z 2318/2500 02010KT 9999 FEW020 SCT030
Forecast period: 1800 UTC 23 March 2017 to 1800 UTC 24 March 2017
Forecast type: FROM: standard forecast or significant change
Winds: from the NNE (20 degrees) at 12 MPH (10 knots; 5.2 m/s)
Visibility: 6 or more miles (10+ km)
Clouds: few clouds at 2000 feet AGL
scattered clouds at 3000 feet AGL
Weather: no significant weather forecast for this period
Text: BECMG 2418/2421 08003KT
Forecast period: 1800 UTC 24 March 2017 to 0000 UTC 25 March 2017
Forecast type: BECOMING: Conditions expected to become as follows by 2100 UTC 24 March 2017
Winds: from the E (80 degrees) at 3 MPH (3 knots; 1.6 m/s)
Visibility: 6 or more miles (10+ km)
Clouds: few clouds at 2000 feet AGL
scattered clouds at 3000 feet AGL
Weather: no significant weather forecast for this period